createdAt,value
2022-10-09T00:01:34.731Z,98947.84
2022-10-09T00:04:03.274Z,98955.47
2022-10-09T00:06:34.707Z,98939.28
2022-10-09T00:09:05.497Z,98944.38
2022-10-09T00:11:35.502Z,98946.97
2022-10-09T00:14:05.348Z,98944.38
2022-10-09T00:16:33.632Z,98943.50
2022-10-09T00:19:01.971Z,98939.25
2022-10-09T00:21:32.343Z,98940.88
2022-10-09T00:24:04.377Z,98941.75
2022-10-09T00:26:33.460Z,98934.03
2022-10-09T00:29:01.737Z,98935.72
2022-10-09T00:31:30.389Z,98948.47
2022-10-09T00:33:58.713Z,98945.09
2022-10-09T00:36:28.328Z,98943.41
2022-10-09T00:38:57.207Z,98941.72
2022-10-09T00:41:30.155Z,98939.97
2022-10-09T00:44:01.037Z,98934.84
2022-10-09T00:46:36.435Z,98928.84
2022-10-09T00:49:15.922Z,98933.06
2022-10-09T00:51:45.936Z,98941.59
2022-10-09T00:54:17.486Z,98934.88
2022-10-09T00:56:47.506Z,98932.19
2022-10-09T00:59:16.610Z,98939.81
2022-10-09T01:01:45.397Z,98924.41
2022-10-09T01:04:14.116Z,98930.38
2022-10-09T01:07:05.263Z,98936.28
2022-10-09T01:09:42.170Z,98927.75
2022-10-09T01:12:21.026Z,98935.41
2022-10-09T01:14:58.228Z,98932.81
2022-10-09T01:17:34.768Z,98928.56
2022-10-09T01:20:23.083Z,98929.41
2022-10-09T01:23:07.027Z,98931.13
2022-10-09T01:25:41.733Z,98917.56
2022-10-09T01:28:12.531Z,98924.34
2022-10-09T01:30:41.117Z,98924.31
2022-10-09T01:33:11.182Z,98915.84
2022-10-09T01:35:41.636Z,98920.13
2022-10-09T01:38:10.562Z,98922.66
2022-10-09T01:40:39.509Z,98915.69
2022-10-09T01:43:07.806Z,98912.28
2022-10-09T01:45:42.983Z,98915.66
2022-10-09T01:48:17.891Z,98917.25
2022-10-09T01:50:48.006Z,98903.63
2022-10-09T01:53:20.491Z,98912.97
2022-10-09T01:55:55.918Z,98906.13
2022-10-09T01:58:29.749Z,98905.25
2022-10-09T02:01:06.412Z,98905.25
2022-10-09T02:03:36.625Z,98896.03
2022-10-09T02:06:07.459Z,98893.50
2022-10-09T02:08:38.833Z,98889.25
2022-10-09T02:11:08.013Z,98891.00
2022-10-09T02:13:37.867Z,98873.94
2022-10-09T02:16:14.459Z,98887.63
2022-10-09T02:18:46.561Z,98887.53
2022-10-09T02:21:18.284Z,98884.09
2022-10-09T02:23:49.894Z,98877.22
2022-10-09T02:26:19.169Z,98884.84
2022-10-09T02:28:48.014Z,98872.84
2022-10-09T02:31:24.383Z,98877.06
2022-10-09T02:33:57.036Z,98873.69
2022-10-09T02:36:25.435Z,98878.00
2022-10-09T02:38:55.933Z,98880.50
2022-10-09T02:41:24.953Z,98878.75
2022-10-09T02:43:53.342Z,98876.97
2022-10-09T02:46:23.243Z,98881.31
2022-10-09T02:48:51.875Z,98876.16
2022-10-09T02:51:20.114Z,98881.31
2022-10-09T02:53:48.486Z,98882.91
2022-10-09T02:56:16.821Z,98879.47
2022-10-09T02:58:45.281Z,98883.69
2022-10-09T03:01:14.164Z,98882.03
2022-10-09T03:03:44.002Z,98880.31
2022-10-09T03:06:14.290Z,98883.72
2022-10-09T03:08:44.853Z,98881.16
2022-10-09T03:11:14.227Z,98883.72
2022-10-09T03:13:42.853Z,98894.75
2022-10-09T03:16:13.324Z,98882.84
2022-10-09T03:18:43.594Z,98885.34
2022-10-09T03:21:14.842Z,98887.97
2022-10-09T03:23:43.309Z,98881.94
2022-10-09T03:26:12.947Z,98865.78
2022-10-09T03:28:42.977Z,98887.84
2022-10-09T03:31:27.308Z,98884.41
2022-10-09T03:34:01.356Z,98880.97
2022-10-09T03:36:29.725Z,98890.38
2022-10-09T03:38:57.911Z,98881.75
2022-10-09T03:41:26.275Z,98890.19
2022-10-09T03:43:54.470Z,98884.25
2022-10-09T03:46:22.696Z,98880.78
2022-10-09T03:48:51.137Z,98885.84
2022-10-09T03:51:20.715Z,98887.63
2022-10-09T03:53:49.101Z,98881.63
2022-10-09T03:56:17.200Z,98885.81
2022-10-09T03:58:45.365Z,98886.69
2022-10-09T04:01:13.658Z,98888.28
2022-10-09T04:03:41.809Z,98888.19
2022-10-09T04:06:10.083Z,98889.88
2022-10-09T04:08:39.912Z,98886.72
2022-10-09T04:11:08.414Z,98873.75
2022-10-09T04:13:36.672Z,98885.84
2022-10-09T04:16:05.236Z,98881.59
2022-10-09T04:18:33.657Z,98890.94
2022-10-09T04:21:01.919Z,98894.25
2022-10-09T04:23:30.017Z,98887.34
2022-10-09T04:26:01.066Z,98891.47
2022-10-09T04:28:30.211Z,98897.41
2022-10-09T04:30:59.138Z,98895.66
2022-10-09T04:33:28.257Z,98893.91
2022-10-09T04:35:57.772Z,98896.63
2022-10-09T04:38:26.672Z,98888.22
2022-10-09T04:41:00.131Z,98898.28
2022-10-09T04:43:28.819Z,98887.31
2022-10-09T04:45:57.378Z,98885.63
2022-10-09T04:48:25.837Z,98883.88
2022-10-09T04:50:53.899Z,98898.13
2022-10-09T04:53:22.150Z,98883.53
2022-10-09T04:55:50.316Z,98883.44
2022-10-09T04:58:19.865Z,98887.66
2022-10-09T05:00:48.928Z,98892.72
2022-10-09T05:03:16.951Z,98879.91
2022-10-09T05:05:45.129Z,98885.88
2022-10-09T05:08:13.120Z,98885.25
2022-10-09T05:10:41.228Z,98888.38
2022-10-09T05:13:09.413Z,98886.63
2022-10-09T05:15:39.376Z,98891.66
2022-10-09T05:18:07.711Z,98861.66
2022-10-09T05:20:35.907Z,98891.56
2022-10-09T05:23:03.978Z,98890.69
2022-10-09T05:25:32.099Z,98868.34
2022-10-09T05:28:00.472Z,98890.59
2022-10-09T05:30:28.645Z,98893.03
2022-10-09T05:32:58.228Z,98892.94
2022-10-09T05:35:26.293Z,98888.59
2022-10-09T05:37:54.369Z,98905.75
2022-10-09T05:40:25.878Z,98898.94
2022-10-09T05:42:57.289Z,98906.59
2022-10-09T05:45:25.589Z,98901.28
2022-10-09T05:47:53.646Z,98921.56
2022-10-09T05:50:23.307Z,98910.44
2022-10-09T05:52:51.718Z,98912.09
2022-10-09T05:55:20.050Z,98912.09
2022-10-09T05:57:48.130Z,98908.88
2022-10-09T06:00:16.518Z,98909.72
2022-10-09T06:02:44.570Z,98913.13
2022-10-09T06:05:12.727Z,98912.31
2022-10-09T06:07:42.087Z,98904.75
2022-10-09T06:10:10.979Z,98906.53
2022-10-09T06:12:39.016Z,98907.34
2022-10-09T06:15:07.948Z,98904.84
2022-10-09T06:17:36.094Z,98903.34
2022-10-09T06:20:04.406Z,98901.75
2022-10-09T06:22:32.489Z,98900.16
2022-10-09T06:25:01.958Z,98871.38
2022-10-09T06:27:29.964Z,98898.78
2022-10-09T06:29:58.348Z,98894.59
2022-10-09T06:32:26.323Z,98905.88
2022-10-09T06:34:54.423Z,98897.56
2022-10-09T06:37:22.376Z,98904.56
2022-10-09T06:39:50.403Z,98904.66
2022-10-09T06:42:19.887Z,98918.44
2022-10-09T06:44:47.957Z,98915.03
2022-10-09T06:47:16.236Z,98915.19
2022-10-09T06:49:44.305Z,98917.03
2022-10-09T06:52:12.372Z,98919.63
2022-10-09T06:54:40.514Z,98922.25
2022-10-09T06:57:08.624Z,98927.47
2022-10-09T06:59:38.198Z,98919.06
2022-10-09T07:02:06.221Z,98930.16
2022-10-09T07:04:34.441Z,98923.47
2022-10-09T07:07:02.909Z,98934.59
2022-10-09T07:09:31.191Z,98925.31
2022-10-09T07:11:59.266Z,98922.00
2022-10-09T07:14:27.464Z,98914.41
2022-10-09T07:16:57.024Z,98916.94
2022-10-09T07:19:25.113Z,98926.41
2022-10-09T07:21:53.393Z,98915.31
2022-10-09T07:24:21.639Z,98919.66
2022-10-09T07:26:49.780Z,98917.94
2022-10-09T07:29:19.904Z,98914.59
2022-10-09T07:31:47.915Z,98916.31
2022-10-09T07:34:17.450Z,98912.09
2022-10-09T07:36:45.552Z,98907.00
2022-10-09T07:39:14.393Z,98911.25
2022-10-09T07:41:43.554Z,98910.47
2022-10-09T07:44:13.003Z,98910.53
2022-10-09T07:46:41.556Z,98916.50
2022-10-09T07:49:10.233Z,98910.56
2022-10-09T07:51:40.238Z,98895.22
2022-10-09T07:54:08.785Z,98904.59
2022-10-09T07:56:39.274Z,98882.41
2022-10-09T07:59:09.699Z,98890.03
2022-10-09T08:01:38.267Z,98884.06
2022-10-09T08:04:07.037Z,98886.56
2022-10-09T08:06:36.270Z,98889.13
2022-10-09T08:09:08.251Z,98881.38
2022-10-09T08:11:40.708Z,98885.56
2022-10-09T08:14:11.708Z,98883.78
2022-10-09T08:16:43.519Z,98875.16
2022-10-09T08:19:11.875Z,98864.78
2022-10-09T08:21:39.986Z,98864.69
2022-10-09T08:24:13.359Z,98855.22
2022-10-09T08:26:42.546Z,98859.25
2022-10-09T08:29:14.046Z,98857.28
2022-10-09T08:31:42.275Z,98858.06
2022-10-09T08:34:10.698Z,98854.47
2022-10-09T08:36:39.100Z,98851.66
2022-10-09T08:39:07.464Z,98855.06
2022-10-09T08:41:48.640Z,98854.00
2022-10-09T08:44:20.711Z,98858.03
2022-10-09T08:46:59.585Z,98856.19
2022-10-09T08:49:35.982Z,98854.38
2022-10-09T08:52:24.660Z,98848.66
2022-10-09T08:54:56.149Z,98852.00
2022-10-09T08:57:32.444Z,98839.75
2022-10-09T09:00:00.794Z,98842.34
2022-10-09T09:02:47.307Z,98839.75
2022-10-09T09:05:29.317Z,98833.63
2022-10-09T09:08:06.794Z,98841.00
2022-10-09T09:10:42.832Z,98842.59
2022-10-09T09:13:31.119Z,98833.81
2022-10-09T09:16:10.843Z,98834.59
2022-10-09T09:18:45.179Z,98831.69
2022-10-09T09:21:25.283Z,98831.50
2022-10-09T09:23:53.392Z,98833.88
2022-10-09T09:26:23.690Z,98820.50
2022-10-09T09:28:58.161Z,98826.91
2022-10-09T09:31:30.514Z,98819.88
2022-10-09T09:34:06.180Z,98824.13
2022-10-09T09:36:40.308Z,98815.97
2022-10-09T09:42:08.805Z,98812.72
2022-10-09T09:44:43.166Z,98814.00
2022-10-09T09:47:16.527Z,98814.75
2022-10-09T09:49:56.098Z,98801.53
2022-10-09T09:52:27.338Z,98800.25
2022-10-09T09:54:58.235Z,98801.16
2022-10-09T09:57:34.615Z,98792.44
2022-10-09T10:00:22.214Z,98793.19
2022-10-09T10:02:51.241Z,98787.09
2022-10-09T10:05:24.560Z,98788.31
2022-10-09T10:07:52.983Z,98792.84
2022-10-09T10:10:25.744Z,98779.88
2022-10-09T10:12:59.277Z,98782.25
2022-10-09T10:15:31.725Z,98772.63
2022-10-09T10:18:02.732Z,98764.31
2022-10-09T10:20:33.343Z,98766.66
2022-10-09T10:23:02.492Z,98768.56
2022-10-09T10:25:34.865Z,98761.63
2022-10-09T10:28:12.603Z,98757.94
2022-10-09T10:30:43.758Z,98758.03
2022-10-09T10:33:20.039Z,98756.78
2022-10-09T10:35:53.181Z,98758.72
2022-10-09T10:38:26.972Z,98751.00
2022-10-09T10:41:00.340Z,98749.66
2022-10-09T10:43:36.756Z,98746.28
2022-10-09T10:46:16.288Z,98749.56
2022-10-09T10:48:47.233Z,98738.63
2022-10-09T10:51:38.390Z,98739.19
2022-10-09T10:54:20.922Z,98741.63
2022-10-09T10:56:53.139Z,98733.44
2022-10-09T10:59:34.897Z,98732.56
2022-10-09T11:02:44.646Z,98729.63
2022-10-09T11:05:22.527Z,98714.78
2022-10-09T11:08:00.278Z,98712.19
2022-10-09T11:10:37.081Z,98717.34
2022-10-09T11:13:14.270Z,98720.38
2022-10-09T11:15:55.958Z,98711.06
2022-10-09T11:18:37.767Z,98708.19
2022-10-09T11:21:19.084Z,98705.94
2022-10-09T11:24:03.974Z,98687.84
2022-10-09T11:26:40.849Z,98692.84
2022-10-09T11:29:16.727Z,98689.81
2022-10-09T11:31:50.629Z,98683.94
2022-10-09T11:34:24.230Z,98669.06
2022-10-09T11:36:52.498Z,98677.34
2022-10-09T11:39:24.053Z,98671.03
2022-10-09T11:41:54.485Z,98662.63
2022-10-09T11:44:37.097Z,98671.03
2022-10-09T11:47:14.153Z,98659.00
2022-10-09T11:49:58.009Z,98655.66
2022-10-09T11:52:32.124Z,98653.53
2022-10-09T11:55:09.927Z,98642.34
2022-10-09T11:57:38.104Z,98640.72
2022-10-09T12:00:10.280Z,98642.09
2022-10-09T12:02:40.130Z,98647.56
2022-10-09T12:05:20.549Z,98641.22
2022-10-09T12:07:48.854Z,98639.88
2022-10-09T12:10:29.087Z,98631.72
2022-10-09T12:13:00.233Z,98633.81
2022-10-09T12:15:39.981Z,98626.34
2022-10-09T12:18:20.836Z,98625.16
2022-10-09T12:20:52.290Z,98626.44
2022-10-09T12:23:27.398Z,98612.38
2022-10-09T12:25:57.620Z,98609.44
2022-10-09T12:28:34.820Z,98604.47
2022-10-09T12:31:07.176Z,98601.34
2022-10-09T12:33:39.930Z,98595.53
2022-10-09T12:36:14.893Z,98591.53
2022-10-09T12:38:44.237Z,98591.38
2022-10-09T12:41:20.997Z,98584.31
2022-10-09T12:43:51.108Z,98577.22
2022-10-09T12:46:29.607Z,98577.00
2022-10-09T12:48:59.666Z,98572.88
2022-10-09T12:51:31.854Z,98570.91
2022-10-09T12:54:00.262Z,98568.19
2022-10-09T12:56:33.536Z,98570.03
2022-10-09T12:59:03.090Z,98562.47
2022-10-09T13:01:32.543Z,98563.69
2022-10-09T13:04:03.693Z,98568.78
2022-10-09T13:06:39.029Z,98552.16
2022-10-09T13:09:09.565Z,98556.69
2022-10-09T13:11:42.348Z,98545.09
2022-10-09T13:14:26.176Z,98550.78
2022-10-09T13:16:54.709Z,98542.41
2022-10-09T13:19:25.725Z,98546.38
2022-10-09T13:22:09.245Z,98518.72
2022-10-09T13:24:37.526Z,98531.25
2022-10-09T13:27:06.974Z,98519.75
2022-10-09T13:29:35.325Z,98525.66
2022-10-09T13:32:04.832Z,98533.06
2022-10-09T13:34:33.182Z,98527.94
2022-10-09T13:37:01.594Z,98522.97
2022-10-09T13:39:31.208Z,98518.72
2022-10-09T13:42:00.805Z,98508.66
2022-10-09T13:44:28.998Z,98507.13
2022-10-09T13:46:57.689Z,98507.00
2022-10-09T13:49:26.161Z,98505.75
2022-10-09T13:51:54.746Z,98503.34
2022-10-09T13:54:23.111Z,98499.56
2022-10-09T13:56:52.725Z,98498.28
2022-10-09T13:59:21.238Z,98498.16
2022-10-09T14:01:49.279Z,98492.78
2022-10-09T14:04:18.006Z,98484.16
2022-10-09T14:06:46.765Z,98489.28
2022-10-09T14:09:15.013Z,98488.47
2022-10-09T14:11:43.973Z,98477.84
2022-10-09T14:14:13.780Z,98486.66
2022-10-09T14:16:42.059Z,98480.06
2022-10-09T14:19:11.350Z,98478.81
2022-10-09T14:21:40.502Z,98472.50
2022-10-09T14:24:08.869Z,98474.34
2022-10-09T14:26:37.522Z,98470.16
2022-10-09T14:29:05.824Z,98454.66
2022-10-09T14:31:35.826Z,98473.44
2022-10-09T14:34:04.105Z,98470.94
2022-10-09T14:36:32.490Z,98465.09
2022-10-09T14:39:01.821Z,98464.63
2022-10-09T14:41:34.301Z,98467.03
2022-10-09T14:44:05.887Z,98466.50
2022-10-09T14:46:37.810Z,98461.28
2022-10-09T14:49:08.343Z,98458.13
2022-10-09T14:51:38.338Z,98457.19
2022-10-09T14:54:07.906Z,98447.25
2022-10-09T14:56:36.878Z,98458.84
2022-10-09T14:59:06.512Z,98445.22
2022-10-09T15:01:36.785Z,98470.66
2022-10-09T15:04:05.886Z,98462.56
2022-10-09T15:06:35.122Z,98456.81
2022-10-09T15:09:06.210Z,98452.38
2022-10-09T15:11:36.085Z,98456.78
2022-10-09T15:14:05.159Z,98448.22
2022-10-09T15:16:33.480Z,98451.38
2022-10-09T15:19:05.849Z,98437.00
2022-10-09T15:21:35.952Z,98442.91
2022-10-09T15:24:05.974Z,98435.63
2022-10-09T15:26:36.827Z,98436.41
2022-10-09T15:29:08.168Z,98434.78
2022-10-09T15:31:38.102Z,98440.06
2022-10-09T15:34:09.511Z,98439.19
2022-10-09T15:36:39.877Z,98430.50
2022-10-09T15:39:09.266Z,98432.63
2022-10-09T15:41:39.377Z,98419.94
2022-10-09T15:44:09.526Z,98415.19
2022-10-09T15:46:37.782Z,98421.53
2022-10-09T15:49:07.553Z,98418.84
2022-10-09T15:51:36.205Z,98421.97
2022-10-09T15:54:04.918Z,98415.84
2022-10-09T15:56:38.797Z,98417.38
2022-10-09T15:59:08.105Z,98406.97
2022-10-09T16:01:36.413Z,98405.22
2022-10-09T16:04:04.662Z,98410.78
2022-10-09T16:06:34.554Z,98414.44
2022-10-09T16:09:04.106Z,98409.47
2022-10-09T16:11:32.755Z,98404.38
2022-10-09T16:14:01.181Z,98406.09
2022-10-09T16:16:29.800Z,98406.44
2022-10-09T16:18:58.478Z,98385.38
2022-10-09T16:21:30.075Z,98406.97
2022-10-09T16:24:01.088Z,98404.66
2022-10-09T16:26:30.679Z,98402.34
2022-10-09T16:29:00.145Z,98403.53
2022-10-09T16:31:31.531Z,98406.28
2022-10-09T16:34:00.222Z,98402.13
2022-10-09T16:36:28.852Z,98403.97
2022-10-09T16:38:58.216Z,98398.81
2022-10-09T16:41:28.279Z,98397.34
2022-10-09T16:44:00.408Z,98396.75
2022-10-09T16:46:30.576Z,98394.09
2022-10-09T16:49:00.750Z,98404.66
2022-10-09T16:51:31.024Z,98403.84
2022-10-09T16:54:01.944Z,98386.16
2022-10-09T16:56:34.108Z,98398.22
2022-10-09T16:59:05.262Z,98400.91
2022-10-09T17:01:36.084Z,98402.06
2022-10-09T17:04:04.793Z,98407.59
2022-10-09T17:06:33.662Z,98399.19
2022-10-09T17:09:01.938Z,98402.06
2022-10-09T17:11:32.513Z,98397.19
2022-10-09T17:14:01.265Z,98393.94
2022-10-09T17:16:32.365Z,98402.72
2022-10-09T17:19:01.769Z,98404.47
2022-10-09T17:21:34.141Z,98395.69
2022-10-09T17:24:05.827Z,98405.56
2022-10-09T17:26:36.525Z,98402.94
2022-10-09T17:29:05.906Z,98396.88
2022-10-09T17:31:34.732Z,98395.28
2022-10-09T17:34:04.855Z,98397.03
2022-10-09T17:36:35.759Z,98392.63
2022-10-09T17:39:05.414Z,98396.25
2022-10-09T17:41:49.340Z,98388.72
2022-10-09T17:44:18.355Z,98388.19
2022-10-09T17:47:00.108Z,98390.06
2022-10-09T17:49:29.297Z,98367.31
2022-10-09T17:51:57.707Z,98394.56
2022-10-09T17:54:26.195Z,98394.75
2022-10-09T17:56:55.961Z,98386.38
2022-10-09T17:59:24.228Z,98397.50
2022-10-09T18:01:53.771Z,98400.97
2022-10-09T18:04:22.353Z,98394.03
2022-10-09T18:06:50.749Z,98393.38
2022-10-09T18:09:19.870Z,98395.91
2022-10-09T18:11:48.086Z,98385.53
2022-10-09T18:14:17.565Z,98386.44
2022-10-09T18:16:46.262Z,98389.97
2022-10-09T18:19:18.533Z,98391.13
2022-10-09T18:21:50.155Z,98392.78
2022-10-09T18:24:18.845Z,98387.72
2022-10-09T18:26:47.151Z,98364.94
2022-10-09T18:29:15.268Z,98372.41
2022-10-09T18:31:44.906Z,98369.09
2022-10-09T18:34:13.404Z,98361.50
2022-10-09T18:36:41.885Z,98363.19
2022-10-09T18:39:14.504Z,98359.84
2022-10-09T18:41:43.190Z,98356.19
2022-10-09T18:44:17.867Z,98351.13
2022-10-09T18:46:50.799Z,98353.50
2022-10-09T18:49:22.919Z,98361.22
2022-10-09T18:51:51.670Z,98356.06
2022-10-09T18:54:23.641Z,98354.50
2022-10-09T18:56:52.159Z,98359.72
2022-10-09T18:59:23.834Z,98336.88
2022-10-09T19:01:53.494Z,98353.03
2022-10-09T19:04:21.738Z,98347.94
2022-10-09T19:06:51.551Z,98342.88
2022-10-09T19:09:19.670Z,98350.81
2022-10-09T19:11:48.047Z,98343.94
2022-10-09T19:14:16.394Z,98345.59
2022-10-09T19:16:44.728Z,98342.25
2022-10-09T19:19:14.692Z,98327.84
2022-10-09T19:21:44.087Z,98335.44
2022-10-09T19:24:13.342Z,98331.91
2022-10-09T19:26:42.121Z,98331.91
2022-10-09T19:29:10.668Z,98325.03
2022-10-09T19:31:38.959Z,98325.81
2022-10-09T19:34:07.380Z,98316.38
2022-10-09T19:36:37.108Z,98311.09
2022-10-09T19:39:05.794Z,98322.09
2022-10-09T19:41:34.372Z,98314.19
2022-10-09T19:44:02.643Z,98310.84
2022-10-09T19:46:30.986Z,98309.19
2022-10-09T19:48:59.404Z,98312.59
2022-10-09T19:51:28.197Z,98308.22
2022-10-09T19:54:00.395Z,98313.38
2022-10-09T19:56:30.564Z,98307.28
2022-10-09T19:59:01.861Z,98312.50
2022-10-09T20:01:30.882Z,98307.28
2022-10-09T20:04:00.362Z,98291.09
2022-10-09T20:06:29.280Z,98304.72
2022-10-09T20:08:58.888Z,98311.56
2022-10-09T20:11:27.565Z,98282.75
2022-10-09T20:13:56.686Z,98278.59
2022-10-09T20:16:25.350Z,98293.72
2022-10-09T20:18:55.222Z,98290.59
2022-10-09T20:21:23.338Z,98288.88
2022-10-09T20:23:51.507Z,98286.34
2022-10-09T20:26:22.798Z,98292.41
2022-10-09T20:28:52.517Z,98293.16
2022-10-09T20:31:23.691Z,98292.53
2022-10-09T20:33:52.534Z,98290.91
2022-10-09T20:36:23.450Z,98284.97
2022-10-09T20:38:51.833Z,98285.03
2022-10-09T20:41:21.580Z,98279.19
2022-10-09T20:43:52.284Z,98278.19
2022-10-09T20:46:21.503Z,98279.06
2022-10-09T20:48:49.786Z,98280.72
2022-10-09T20:51:18.766Z,98269.75
2022-10-09T20:53:47.657Z,98274.00
2022-10-09T20:56:16.172Z,98274.91
2022-10-09T20:58:46.065Z,98271.72
2022-10-09T21:01:16.349Z,98275.19
2022-10-09T21:03:45.469Z,98276.13
2022-10-09T21:06:20.052Z,98270.28
2022-10-09T21:08:48.309Z,98261.13
2022-10-09T21:11:17.935Z,98262.94
2022-10-09T21:13:48.256Z,98274.13
2022-10-09T21:16:19.952Z,98262.38
2022-10-09T21:18:48.824Z,98270.00
2022-10-09T21:21:19.351Z,98262.25
2022-10-09T21:23:51.112Z,98261.41
2022-10-09T21:26:21.131Z,98264.00
2022-10-09T21:28:55.455Z,98257.91
2022-10-09T21:31:28.734Z,98260.56
2022-10-09T21:33:58.118Z,98266.72
2022-10-09T21:36:35.626Z,98257.41
2022-10-09T21:39:05.669Z,98262.69
2022-10-09T21:41:34.560Z,98266.16
2022-10-09T21:44:04.966Z,98263.59
2022-10-09T21:46:33.477Z,98256.53
2022-10-09T21:49:06.751Z,98247.78
2022-10-09T21:51:35.458Z,98247.66
2022-10-09T21:54:03.714Z,98256.38
2022-10-09T21:56:32.007Z,98263.25
2022-10-09T21:59:00.506Z,98262.53
2022-10-09T22:01:30.281Z,98243.88
2022-10-09T22:03:58.799Z,98253.41
2022-10-09T22:06:27.172Z,98263.69
2022-10-09T22:08:55.568Z,98256.06
2022-10-09T22:11:24.245Z,98253.53
2022-10-09T22:13:52.644Z,98254.41
2022-10-09T22:16:20.845Z,98251.84
2022-10-09T22:18:50.563Z,98252.69
2022-10-09T22:21:19.315Z,98251.00
2022-10-09T22:23:47.689Z,98250.06
2022-10-09T22:26:18.354Z,98252.56
2022-10-09T22:28:47.369Z,98233.97
2022-10-09T22:31:18.308Z,98255.97
2022-10-09T22:33:53.321Z,98247.38
2022-10-09T22:36:24.360Z,98232.97
2022-10-09T22:38:56.044Z,98247.38
2022-10-09T22:41:26.252Z,98244.88
2022-10-09T22:43:56.179Z,98236.34
2022-10-09T22:46:26.507Z,98230.41
2022-10-09T22:48:58.262Z,98236.44
2022-10-09T22:51:28.488Z,98236.38
2022-10-09T22:53:57.989Z,98227.00
2022-10-09T22:56:28.100Z,98228.78
2022-10-09T22:58:57.305Z,98224.34
2022-10-09T23:01:30.527Z,98231.41
2022-10-09T23:04:01.133Z,98231.47
2022-10-09T23:06:29.643Z,98228.16
2022-10-09T23:08:58.336Z,98239.34
2022-10-09T23:11:27.029Z,98230.84
2022-10-09T23:13:56.613Z,98229.22
2022-10-09T23:16:25.949Z,98227.53
2022-10-09T23:18:54.191Z,98226.84
2022-10-09T23:21:25.554Z,98231.81
2022-10-09T23:23:54.858Z,98234.41
2022-10-09T23:26:25.269Z,98237.78
2022-10-09T23:28:55.240Z,98232.63
2022-10-09T23:31:24.641Z,98234.34
2022-10-09T23:33:53.306Z,98237.84
2022-10-09T23:36:25.480Z,98232.78
2022-10-09T23:38:54.458Z,98230.34
2022-10-09T23:41:25.130Z,98233.75
2022-10-09T23:43:53.882Z,98231.28
2022-10-09T23:46:23.633Z,98233.00
2022-10-09T23:48:53.159Z,98224.50
2022-10-09T23:51:24.883Z,98223.72
2022-10-09T23:53:53.460Z,98223.81
2022-10-09T23:56:25.031Z,98229.00
2022-10-09T23:58:54.432Z,98227.41
